sensor_id;sensor_type;location;lat;lon;timestamp;temperature;humidity
46676;DHT22;32412;51.478;5.694;2023-05-14T00:00:42;13.40;99.90
46676;DHT22;32412;51.478;5.694;2023-05-14T00:03:08;13.40;99.90
46676;DHT22;32412;51.478;5.694;2023-05-14T00:05:34;13.40;99.90
46676;DHT22;32412;51.478;5.694;2023-05-14T00:07:59;13.40;99.90
46676;DHT22;32412;51.478;5.694;2023-05-14T00:10:26;13.40;99.90
46676;DHT22;32412;51.478;5.694;2023-05-14T00:12:52;13.40;99.90
46676;DHT22;32412;51.478;5.694;2023-05-14T00:15:18;13.40;99.90
46676;DHT22;32412;51.478;5.694;2023-05-14T00:17:43;13.50;99.90
46676;DHT22;32412;51.478;5.694;2023-05-14T00:20:10;13.50;99.90
46676;DHT22;32412;51.478;5.694;2023-05-14T00:22:37;13.50;99.90
46676;DHT22;32412;51.478;5.694;2023-05-14T00:25:05;13.50;99.90
46676;DHT22;32412;51.478;5.694;2023-05-14T00:27:31;13.60;99.90
46676;DHT22;32412;51.478;5.694;2023-05-14T00:29:56;13.50;99.90
46676;DHT22;32412;51.478;5.694;2023-05-14T00:32:23;13.50;99.90
46676;DHT22;32412;51.478;5.694;2023-05-14T00:34:48;13.40;99.90
46676;DHT22;32412;51.478;5.694;2023-05-14T00:37:14;13.30;99.90
46676;DHT22;32412;51.478;5.694;2023-05-14T00:39:40;13.30;99.90
46676;DHT22;32412;51.478;5.694;2023-05-14T00:42:05;13.20;99.90
46676;DHT22;32412;51.478;5.694;2023-05-14T00:44:31;13.10;99.90
46676;DHT22;32412;51.478;5.694;2023-05-14T00:46:58;13.10;99.90
46676;DHT22;32412;51.478;5.694;2023-05-14T00:49:24;13.00;99.90
46676;DHT22;32412;51.478;5.694;2023-05-14T00:51:50;12.90;99.90
46676;DHT22;32412;51.478;5.694;2023-05-14T00:54:17;12.80;99.90
46676;DHT22;32412;51.478;5.694;2023-05-14T00:56:44;12.80;99.90
46676;DHT22;32412;51.478;5.694;2023-05-14T00:59:10;12.70;99.90
46676;DHT22;32412;51.478;5.694;2023-05-14T01:01:36;12.70;99.90
46676;DHT22;32412;51.478;5.694;2023-05-14T01:04:02;12.60;99.90
46676;DHT22;32412;51.478;5.694;2023-05-14T01:12:20;12.40;99.90
46676;DHT22;32412;51.478;5.694;2023-05-14T01:14:58;12.40;99.90
46676;DHT22;32412;51.478;5.694;2023-05-14T01:17:28;12.40;99.90
46676;DHT22;32412;51.478;5.694;2023-05-14T01:19:55;12.40;99.90
46676;DHT22;32412;51.478;5.694;2023-05-14T01:22:22;12.40;99.90
46676;DHT22;32412;51.478;5.694;2023-05-14T01:24:47;12.40;99.90
46676;DHT22;32412;51.478;5.694;2023-05-14T01:27:34;12.50;99.90
46676;DHT22;32412;51.478;5.694;2023-05-14T01:30:17;12.40;99.90
46676;DHT22;32412;51.478;5.694;2023-05-14T01:32:47;12.40;99.90
46676;DHT22;32412;51.478;5.694;2023-05-14T01:35:13;12.40;99.90
46676;DHT22;32412;51.478;5.694;2023-05-14T01:37:40;12.40;99.90
46676;DHT22;32412;51.478;5.694;2023-05-14T01:40:08;12.30;99.90
46676;DHT22;32412;51.478;5.694;2023-05-14T01:42:34;12.30;99.90
46676;DHT22;32412;51.478;5.694;2023-05-14T01:45:01;12.20;99.90
46676;DHT22;32412;51.478;5.694;2023-05-14T01:47:27;12.20;99.90
46676;DHT22;32412;51.478;5.694;2023-05-14T01:49:52;12.20;99.90
46676;DHT22;32412;51.478;5.694;2023-05-14T01:52:19;12.20;99.90
46676;DHT22;32412;51.478;5.694;2023-05-14T01:54:46;12.10;99.90
46676;DHT22;32412;51.478;5.694;2023-05-14T01:57:12;12.10;99.90
46676;DHT22;32412;51.478;5.694;2023-05-14T01:59:38;12.10;99.90
46676;DHT22;32412;51.478;5.694;2023-05-14T02:02:03;12.10;99.90
46676;DHT22;32412;51.478;5.694;2023-05-14T02:04:29;12.10;99.90
46676;DHT22;32412;51.478;5.694;2023-05-14T02:06:54;12.00;99.90
46676;DHT22;32412;51.478;5.694;2023-05-14T02:09:20;11.90;99.90
46676;DHT22;32412;51.478;5.694;2023-05-14T02:11:46;11.90;99.90
46676;DHT22;32412;51.478;5.694;2023-05-14T02:14:11;11.80;99.90
46676;DHT22;32412;51.478;5.694;2023-05-14T02:16:37;11.80;99.90
46676;DHT22;32412;51.478;5.694;2023-05-14T02:19:02;11.80;99.90
46676;DHT22;32412;51.478;5.694;2023-05-14T02:21:28;11.80;99.90
46676;DHT22;32412;51.478;5.694;2023-05-14T02:23:54;11.70;99.90
46676;DHT22;32412;51.478;5.694;2023-05-14T02:26:20;11.70;99.90
46676;DHT22;32412;51.478;5.694;2023-05-14T02:28:46;11.70;99.90
46676;DHT22;32412;51.478;5.694;2023-05-14T02:31:12;11.70;99.90
46676;DHT22;32412;51.478;5.694;2023-05-14T02:33:38;11.60;99.90
46676;DHT22;32412;51.478;5.694;2023-05-14T02:36:04;11.60;99.90
46676;DHT22;32412;51.478;5.694;2023-05-14T02:38:30;11.60;99.90
46676;DHT22;32412;51.478;5.694;2023-05-14T02:40:56;11.60;99.90
46676;DHT22;32412;51.478;5.694;2023-05-14T02:43:21;11.70;99.90
46676;DHT22;32412;51.478;5.694;2023-05-14T02:45:47;11.80;99.90
46676;DHT22;32412;51.478;5.694;2023-05-14T02:48:13;11.80;99.90
46676;DHT22;32412;51.478;5.694;2023-05-14T02:50:38;11.80;99.90
46676;DHT22;32412;51.478;5.694;2023-05-14T02:53:04;11.90;99.90
46676;DHT22;32412;51.478;5.694;2023-05-14T02:55:30;11.90;99.90
46676;DHT22;32412;51.478;5.694;2023-05-14T02:57:55;11.90;99.90
46676;DHT22;32412;51.478;5.694;2023-05-14T03:00:21;11.80;99.90
46676;DHT22;32412;51.478;5.694;2023-05-14T03:02:47;11.80;99.90
46676;DHT22;32412;51.478;5.694;2023-05-14T03:05:12;11.80;99.90
46676;DHT22;32412;51.478;5.694;2023-05-14T03:07:38;11.70;99.90
46676;DHT22;32412;51.478;5.694;2023-05-14T03:10:04;11.70;99.90
46676;DHT22;32412;51.478;5.694;2023-05-14T03:12:30;11.60;99.90
46676;DHT22;32412;51.478;5.694;2023-05-14T03:14:56;11.60;99.90
46676;DHT22;32412;51.478;5.694;2023-05-14T03:17:21;11.50;99.90
46676;DHT22;32412;51.478;5.694;2023-05-14T03:19:47;11.50;99.90
46676;DHT22;32412;51.478;5.694;2023-05-14T03:22:13;11.50;99.90
46676;DHT22;32412;51.478;5.694;2023-05-14T03:24:39;11.40;99.90
46676;DHT22;32412;51.478;5.694;2023-05-14T03:27:05;11.40;99.90
46676;DHT22;32412;51.478;5.694;2023-05-14T03:29:31;11.30;99.90
46676;DHT22;32412;51.478;5.694;2023-05-14T03:31:56;11.30;99.90
46676;DHT22;32412;51.478;5.694;2023-05-14T03:34:22;11.30;99.90
46676;DHT22;32412;51.478;5.694;2023-05-14T03:36:49;11.30;99.90
46676;DHT22;32412;51.478;5.694;2023-05-14T03:39:15;11.20;99.90
46676;DHT22;32412;51.478;5.694;2023-05-14T03:41:47;11.20;99.90
46676;DHT22;32412;51.478;5.694;2023-05-14T03:44:13;11.20;99.90
46676;DHT22;32412;51.478;5.694;2023-05-14T03:46:39;11.10;99.90
46676;DHT22;32412;51.478;5.694;2023-05-14T03:49:06;11.10;99.90
46676;DHT22;32412;51.478;5.694;2023-05-14T03:51:31;11.10;99.90
46676;DHT22;32412;51.478;5.694;2023-05-14T03:53:57;11.00;99.90
46676;DHT22;32412;51.478;5.694;2023-05-14T03:56:23;11.00;99.90
46676;DHT22;32412;51.478;5.694;2023-05-14T03:58:50;11.00;99.90
46676;DHT22;32412;51.478;5.694;2023-05-14T04:01:16;11.00;99.90
46676;DHT22;32412;51.478;5.694;2023-05-14T04:03:42;11.00;99.90
46676;DHT22;32412;51.478;5.694;2023-05-14T04:06:08;11.00;99.90
46676;DHT22;32412;51.478;5.694;2023-05-14T04:08:33;11.00;99.90
46676;DHT22;32412;51.478;5.694;2023-05-14T04:10:59;11.00;99.90
46676;DHT22;32412;51.478;5.694;2023-05-14T04:13:24;11.00;99.90
46676;DHT22;32412;51.478;5.694;2023-05-14T04:15:50;11.00;99.90
46676;DHT22;32412;51.478;5.694;2023-05-14T04:18:16;10.90;99.90
46676;DHT22;32412;51.478;5.694;2023-05-14T04:20:41;11.00;99.90
46676;DHT22;32412;51.478;5.694;2023-05-14T04:23:07;11.00;99.90
46676;DHT22;32412;51.478;5.694;2023-05-14T04:25:33;11.00;99.90
46676;DHT22;32412;51.478;5.694;2023-05-14T04:27:58;11.00;99.90
46676;DHT22;32412;51.478;5.694;2023-05-14T04:30:24;11.00;99.90
46676;DHT22;32412;51.478;5.694;2023-05-14T04:32:49;11.10;99.90
46676;DHT22;32412;51.478;5.694;2023-05-14T04:35:15;11.10;99.90
46676;DHT22;32412;51.478;5.694;2023-05-14T04:37:41;11.10;99.90
46676;DHT22;32412;51.478;5.694;2023-05-14T04:40:08;11.10;99.90
46676;DHT22;32412;51.478;5.694;2023-05-14T04:42:36;11.20;99.90
46676;DHT22;32412;51.478;5.694;2023-05-14T04:45:01;11.30;99.90
46676;DHT22;32412;51.478;5.694;2023-05-14T04:47:30;11.40;99.90
46676;DHT22;32412;51.478;5.694;2023-05-14T04:49:55;11.40;99.90
46676;DHT22;32412;51.478;5.694;2023-05-14T04:52:22;11.40;99.90
46676;DHT22;32412;51.478;5.694;2023-05-14T04:54:48;11.50;99.90
46676;DHT22;32412;51.478;5.694;2023-05-14T04:57:14;11.50;99.90
46676;DHT22;32412;51.478;5.694;2023-05-14T04:59:39;11.50;99.90
46676;DHT22;32412;51.478;5.694;2023-05-14T05:02:05;11.60;99.90
46676;DHT22;32412;51.478;5.694;2023-05-14T05:04:30;11.60;99.90
46676;DHT22;32412;51.478;5.694;2023-05-14T05:06:56;11.60;99.90
46676;DHT22;32412;51.478;5.694;2023-05-14T05:09:22;11.70;99.90
46676;DHT22;32412;51.478;5.694;2023-05-14T05:11:47;11.80;99.90
46676;DHT22;32412;51.478;5.694;2023-05-14T05:14:13;11.80;99.90
46676;DHT22;32412;51.478;5.694;2023-05-14T05:16:39;11.90;99.90
46676;DHT22;32412;51.478;5.694;2023-05-14T05:19:04;12.10;99.90
46676;DHT22;32412;51.478;5.694;2023-05-14T05:21:30;12.20;99.90
46676;DHT22;32412;51.478;5.694;2023-05-14T05:23:56;12.20;99.90
46676;DHT22;32412;51.478;5.694;2023-05-14T05:26:21;12.30;99.90
46676;DHT22;32412;51.478;5.694;2023-05-14T05:28:47;12.40;99.90
46676;DHT22;32412;51.478;5.694;2023-05-14T05:31:13;12.40;99.90
46676;DHT22;32412;51.478;5.694;2023-05-14T05:33:38;12.50;99.90
46676;DHT22;32412;51.478;5.694;2023-05-14T05:36:04;12.50;99.90
46676;DHT22;32412;51.478;5.694;2023-05-14T05:38:30;12.50;99.90
46676;DHT22;32412;51.478;5.694;2023-05-14T05:40:55;12.60;99.90
46676;DHT22;32412;51.478;5.694;2023-05-14T05:43:21;12.60;99.90
46676;DHT22;32412;51.478;5.694;2023-05-14T05:45:46;12.50;99.90
46676;DHT22;32412;51.478;5.694;2023-05-14T05:48:12;12.50;99.90
46676;DHT22;32412;51.478;5.694;2023-05-14T05:50:38;12.60;99.90
46676;DHT22;32412;51.478;5.694;2023-05-14T05:53:03;12.70;99.90
46676;DHT22;32412;51.478;5.694;2023-05-14T05:55:29;12.80;99.90
46676;DHT22;32412;51.478;5.694;2023-05-14T05:57:55;12.90;99.90
46676;DHT22;32412;51.478;5.694;2023-05-14T06:00:21;12.90;99.90
46676;DHT22;32412;51.478;5.694;2023-05-14T06:02:47;13.00;99.90
46676;DHT22;32412;51.478;5.694;2023-05-14T06:05:13;13.00;99.90
46676;DHT22;32412;51.478;5.694;2023-05-14T06:07:39;13.10;99.90
46676;DHT22;32412;51.478;5.694;2023-05-14T06:10:05;13.30;99.90
46676;DHT22;32412;51.478;5.694;2023-05-14T06:12:31;13.40;99.90
46676;DHT22;32412;51.478;5.694;2023-05-14T06:14:56;13.50;99.90
46676;DHT22;32412;51.478;5.694;2023-05-14T06:17:23;13.50;99.90
46676;DHT22;32412;51.478;5.694;2023-05-14T06:19:50;13.60;99.90
46676;DHT22;32412;51.478;5.694;2023-05-14T06:22:16;13.60;99.90
46676;DHT22;32412;51.478;5.694;2023-05-14T06:24:46;13.60;99.90
46676;DHT22;32412;51.478;5.694;2023-05-14T06:27:12;13.80;99.90
46676;DHT22;32412;51.478;5.694;2023-05-14T06:29:38;14.00;99.90
46676;DHT22;32412;51.478;5.694;2023-05-14T06:32:04;14.10;99.90
46676;DHT22;32412;51.478;5.694;2023-05-14T06:34:30;14.10;99.90
46676;DHT22;32412;51.478;5.694;2023-05-14T06:36:56;14.10;99.90
46676;DHT22;32412;51.478;5.694;2023-05-14T06:39:22;14.10;99.90
46676;DHT22;32412;51.478;5.694;2023-05-14T06:41:48;14.10;99.90
46676;DHT22;32412;51.478;5.694;2023-05-14T06:44:15;14.20;99.90
46676;DHT22;32412;51.478;5.694;2023-05-14T06:46:41;14.30;99.90
46676;DHT22;32412;51.478;5.694;2023-05-14T06:49:07;14.40;99.90
46676;DHT22;32412;51.478;5.694;2023-05-14T06:51:32;14.50;99.90
46676;DHT22;32412;51.478;5.694;2023-05-14T06:53:58;14.70;99.90
46676;DHT22;32412;51.478;5.694;2023-05-14T06:56:24;14.90;99.90
46676;DHT22;32412;51.478;5.694;2023-05-14T06:58:49;15.00;99.90
46676;DHT22;32412;51.478;5.694;2023-05-14T07:01:15;14.90;99.90
46676;DHT22;32412;51.478;5.694;2023-05-14T07:03:41;14.90;99.90
46676;DHT22;32412;51.478;5.694;2023-05-14T07:06:07;15.00;99.90
46676;DHT22;32412;51.478;5.694;2023-05-14T07:08:33;15.20;99.90
46676;DHT22;32412;51.478;5.694;2023-05-14T07:10:58;15.40;99.90
46676;DHT22;32412;51.478;5.694;2023-05-14T07:13:25;15.50;99.90
46676;DHT22;32412;51.478;5.694;2023-05-14T07:15:51;15.60;99.90
46676;DHT22;32412;51.478;5.694;2023-05-14T07:18:17;15.80;99.90
46676;DHT22;32412;51.478;5.694;2023-05-14T07:20:43;15.80;99.90
46676;DHT22;32412;51.478;5.694;2023-05-14T07:23:08;15.80;99.90
46676;DHT22;32412;51.478;5.694;2023-05-14T07:25:34;15.70;99.90
46676;DHT22;32412;51.478;5.694;2023-05-14T07:27:59;15.70;99.90
46676;DHT22;32412;51.478;5.694;2023-05-14T07:30:25;15.50;99.90
46676;DHT22;32412;51.478;5.694;2023-05-14T07:32:51;15.70;99.90
46676;DHT22;32412;51.478;5.694;2023-05-14T07:35:16;15.80;99.90
46676;DHT22;32412;51.478;5.694;2023-05-14T07:37:42;16.00;99.90
46676;DHT22;32412;51.478;5.694;2023-05-14T07:40:08;16.10;99.90
46676;DHT22;32412;51.478;5.694;2023-05-14T07:42:34;16.20;99.90
46676;DHT22;32412;51.478;5.694;2023-05-14T07:45:00;16.40;99.90
46676;DHT22;32412;51.478;5.694;2023-05-14T07:47:25;16.50;99.90
46676;DHT22;32412;51.478;5.694;2023-05-14T07:49:55;16.60;99.90
46676;DHT22;32412;51.478;5.694;2023-05-14T07:52:22;16.70;99.90
46676;DHT22;32412;51.478;5.694;2023-05-14T07:54:50;16.90;99.90
46676;DHT22;32412;51.478;5.694;2023-05-14T07:57:16;17.10;99.90
46676;DHT22;32412;51.478;5.694;2023-05-14T07:59:42;17.00;99.90
46676;DHT22;32412;51.478;5.694;2023-05-14T08:02:08;17.20;99.90
46676;DHT22;32412;51.478;5.694;2023-05-14T08:04:37;17.40;99.90
46676;DHT22;32412;51.478;5.694;2023-05-14T08:07:03;17.50;99.90
46676;DHT22;32412;51.478;5.694;2023-05-14T08:09:29;17.40;99.90
46676;DHT22;32412;51.478;5.694;2023-05-14T08:11:54;17.30;99.90
46676;DHT22;32412;51.478;5.694;2023-05-14T08:14:20;17.50;99.90
46676;DHT22;32412;51.478;5.694;2023-05-14T08:16:46;17.60;99.90
46676;DHT22;32412;51.478;5.694;2023-05-14T08:19:12;17.60;99.90
46676;DHT22;32412;51.478;5.694;2023-05-14T08:21:38;17.70;99.90
46676;DHT22;32412;51.478;5.694;2023-05-14T08:24:04;17.70;99.90
46676;DHT22;32412;51.478;5.694;2023-05-14T08:26:31;17.70;99.90
46676;DHT22;32412;51.478;5.694;2023-05-14T08:28:58;17.70;99.90
46676;DHT22;32412;51.478;5.694;2023-05-14T08:31:23;17.50;99.90
46676;DHT22;32412;51.478;5.694;2023-05-14T08:33:49;17.60;99.90
46676;DHT22;32412;51.478;5.694;2023-05-14T08:36:15;17.70;99.90
46676;DHT22;32412;51.478;5.694;2023-05-14T08:38:41;17.80;99.90
46676;DHT22;32412;51.478;5.694;2023-05-14T08:41:07;18.00;99.90
46676;DHT22;32412;51.478;5.694;2023-05-14T08:46:32;18.20;99.90
46676;DHT22;32412;51.478;5.694;2023-05-14T08:49:09;18.40;99.90
46676;DHT22;32412;51.478;5.694;2023-05-14T08:51:37;18.50;99.90
46676;DHT22;32412;51.478;5.694;2023-05-14T08:54:04;18.60;99.90
46676;DHT22;32412;51.478;5.694;2023-05-14T08:56:31;18.70;99.90
46676;DHT22;32412;51.478;5.694;2023-05-14T08:58:58;18.70;99.90
46676;DHT22;32412;51.478;5.694;2023-05-14T09:01:24;18.70;99.90
46676;DHT22;32412;51.478;5.694;2023-05-14T09:03:51;19.00;99.90
46676;DHT22;32412;51.478;5.694;2023-05-14T09:06:18;19.00;99.90
46676;DHT22;32412;51.478;5.694;2023-05-14T09:08:45;19.20;99.90
46676;DHT22;32412;51.478;5.694;2023-05-14T09:11:11;19.40;99.90
46676;DHT22;32412;51.478;5.694;2023-05-14T09:13:37;19.40;99.90
46676;DHT22;32412;51.478;5.694;2023-05-14T09:16:04;19.50;99.90
46676;DHT22;32412;51.478;5.694;2023-05-14T09:18:30;19.50;99.90
46676;DHT22;32412;51.478;5.694;2023-05-14T09:20:56;19.80;99.90
46676;DHT22;32412;51.478;5.694;2023-05-14T09:23:25;19.70;99.90
46676;DHT22;32412;51.478;5.694;2023-05-14T09:25:51;19.70;99.90
46676;DHT22;32412;51.478;5.694;2023-05-14T09:28:17;20.10;99.90
46676;DHT22;32412;51.478;5.694;2023-05-14T09:30:49;20.60;99.90
46676;DHT22;32412;51.478;5.694;2023-05-14T09:33:25;20.60;99.90
46676;DHT22;32412;51.478;5.694;2023-05-14T09:35:57;20.80;99.90
46676;DHT22;32412;51.478;5.694;2023-05-14T09:38:28;20.60;99.90
46676;DHT22;32412;51.478;5.694;2023-05-14T09:40:54;21.20;99.90
46676;DHT22;32412;51.478;5.694;2023-05-14T09:43:20;21.80;99.90
46676;DHT22;32412;51.478;5.694;2023-05-14T09:45:46;22.10;99.90
46676;DHT22;32412;51.478;5.694;2023-05-14T09:48:15;22.40;99.90
46676;DHT22;32412;51.478;5.694;2023-05-14T09:50:41;22.80;99.90
46676;DHT22;32412;51.478;5.694;2023-05-14T09:53:07;22.90;99.90
46676;DHT22;32412;51.478;5.694;2023-05-14T09:55:33;22.70;99.90
46676;DHT22;32412;51.478;5.694;2023-05-14T09:58:00;23.30;99.90
46676;DHT22;32412;51.478;5.694;2023-05-14T10:00:25;23.30;99.90
46676;DHT22;32412;51.478;5.694;2023-05-14T10:02:51;23.20;99.90
46676;DHT22;32412;51.478;5.694;2023-05-14T10:05:18;23.50;99.90
46676;DHT22;32412;51.478;5.694;2023-05-14T10:07:49;23.40;99.90
46676;DHT22;32412;51.478;5.694;2023-05-14T10:10:19;24.10;99.90
46676;DHT22;32412;51.478;5.694;2023-05-14T10:13:12;23.80;99.90
46676;DHT22;32412;51.478;5.694;2023-05-14T10:15:39;24.40;99.90
46676;DHT22;32412;51.478;5.694;2023-05-14T10:18:13;24.80;99.90
46676;DHT22;32412;51.478;5.694;2023-05-14T10:20:41;25.20;99.50
46676;DHT22;32412;51.478;5.694;2023-05-14T10:23:07;25.40;99.00
46676;DHT22;32412;51.478;5.694;2023-05-14T10:25:34;25.20;99.60
46676;DHT22;32412;51.478;5.694;2023-05-14T10:28:01;25.80;99.40
46676;DHT22;32412;51.478;5.694;2023-05-14T10:30:27;25.30;98.70
46676;DHT22;32412;51.478;5.694;2023-05-14T10:33:07;24.90;99.40
46676;DHT22;32412;51.478;5.694;2023-05-14T10:38:26;25.00;99.20
46676;DHT22;32412;51.478;5.694;2023-05-14T10:41:10;25.80;98.50
46676;DHT22;32412;51.478;5.694;2023-05-14T10:43:38;26.60;98.80
46676;DHT22;32412;51.478;5.694;2023-05-14T10:46:04;26.80;97.10
46676;DHT22;32412;51.478;5.694;2023-05-14T10:48:30;26.40;97.50
46676;DHT22;32412;51.478;5.694;2023-05-14T10:50:56;26.90;98.20
46676;DHT22;32412;51.478;5.694;2023-05-14T10:56:10;27.50;97.40
46676;DHT22;32412;51.478;5.694;2023-05-14T10:58:42;28.00;96.30
46676;DHT22;32412;51.478;5.694;2023-05-14T11:01:10;27.50;96.60
46676;DHT22;32412;51.478;5.694;2023-05-14T11:03:43;26.50;95.80
46676;DHT22;32412;51.478;5.694;2023-05-14T11:06:11;25.90;96.30
46676;DHT22;32412;51.478;5.694;2023-05-14T11:08:37;26.50;97.00
46676;DHT22;32412;51.478;5.694;2023-05-14T11:11:04;27.80;96.40
46676;DHT22;32412;51.478;5.694;2023-05-14T11:13:30;28.10;95.40
46676;DHT22;32412;51.478;5.694;2023-05-14T11:15:57;27.80;95.00
46676;DHT22;32412;51.478;5.694;2023-05-14T11:18:31;28.20;94.50
46676;DHT22;32412;51.478;5.694;2023-05-14T11:21:05;28.50;94.70
46676;DHT22;32412;51.478;5.694;2023-05-14T11:23:30;29.20;93.10
46676;DHT22;32412;51.478;5.694;2023-05-14T11:25:59;28.40;92.60
46676;DHT22;32412;51.478;5.694;2023-05-14T11:28:25;27.60;93.40
46676;DHT22;32412;51.478;5.694;2023-05-14T11:30:52;27.50;93.50
46676;DHT22;32412;51.478;5.694;2023-05-14T11:33:19;27.10;92.00
46676;DHT22;32412;51.478;5.694;2023-05-14T11:35:45;26.00;93.30
46676;DHT22;32412;51.478;5.694;2023-05-14T11:38:20;24.70;93.20
46676;DHT22;32412;51.478;5.694;2023-05-14T11:40:53;24.10;94.00
46676;DHT22;32412;51.478;5.694;2023-05-14T11:43:19;24.80;92.90
46676;DHT22;32412;51.478;5.694;2023-05-14T11:45:52;26.10;93.80
46676;DHT22;32412;51.478;5.694;2023-05-14T11:48:19;27.30;93.80
46676;DHT22;32412;51.478;5.694;2023-05-14T11:50:50;27.90;92.40
46676;DHT22;32412;51.478;5.694;2023-05-14T11:53:25;27.10;92.20
46676;DHT22;32412;51.478;5.694;2023-05-14T11:55:53;26.80;92.70
46676;DHT22;32412;51.478;5.694;2023-05-14T11:58:19;27.70;93.20
46676;DHT22;32412;51.478;5.694;2023-05-14T12:00:48;28.00;92.80
46676;DHT22;32412;51.478;5.694;2023-05-14T12:03:14;27.40;92.80
46676;DHT22;32412;51.478;5.694;2023-05-14T12:05:40;26.00;93.00
46676;DHT22;32412;51.478;5.694;2023-05-14T12:08:23;24.70;93.90
46676;DHT22;32412;51.478;5.694;2023-05-14T12:10:51;24.40;95.30
46676;DHT22;32412;51.478;5.694;2023-05-14T12:13:17;24.60;93.50
46676;DHT22;32412;51.478;5.694;2023-05-14T12:16:01;24.40;92.00
46676;DHT22;32412;51.478;5.694;2023-05-14T12:18:29;24.00;91.10
46676;DHT22;32412;51.478;5.694;2023-05-14T12:20:55;23.70;93.20
46676;DHT22;32412;51.478;5.694;2023-05-14T12:23:30;23.00;94.60
46676;DHT22;32412;51.478;5.694;2023-05-14T12:26:01;23.40;94.20
46676;DHT22;32412;51.478;5.694;2023-05-14T12:28:27;23.60;94.80
46676;DHT22;32412;51.478;5.694;2023-05-14T12:30:57;23.10;93.60
46676;DHT22;32412;51.478;5.694;2023-05-14T12:33:23;22.80;94.60
46676;DHT22;32412;51.478;5.694;2023-05-14T12:35:53;22.70;93.40
46676;DHT22;32412;51.478;5.694;2023-05-14T12:38:21;22.50;93.50
46676;DHT22;32412;51.478;5.694;2023-05-14T12:40:50;22.50;93.80
46676;DHT22;32412;51.478;5.694;2023-05-14T12:43:15;22.70;95.00
46676;DHT22;32412;51.478;5.694;2023-05-14T12:45:41;22.80;93.90
46676;DHT22;32412;51.478;5.694;2023-05-14T12:48:06;22.90;95.00
46676;DHT22;32412;51.478;5.694;2023-05-14T12:50:32;23.50;92.40
46676;DHT22;32412;51.478;5.694;2023-05-14T12:52:58;23.80;92.90
46676;DHT22;32412;51.478;5.694;2023-05-14T12:55:23;23.50;92.50
46676;DHT22;32412;51.478;5.694;2023-05-14T12:57:49;23.50;92.80
46676;DHT22;32412;51.478;5.694;2023-05-14T13:00:15;24.00;92.50
46676;DHT22;32412;51.478;5.694;2023-05-14T13:02:41;25.00;91.70
46676;DHT22;32412;51.478;5.694;2023-05-14T13:05:07;25.60;91.00
46676;DHT22;32412;51.478;5.694;2023-05-14T13:07:33;25.50;90.60
46676;DHT22;32412;51.478;5.694;2023-05-14T13:09:58;25.50;92.00
46676;DHT22;32412;51.478;5.694;2023-05-14T13:12:24;24.90;90.90
46676;DHT22;32412;51.478;5.694;2023-05-14T13:14:49;24.60;90.90
46676;DHT22;32412;51.478;5.694;2023-05-14T13:17:15;24.20;89.30
46676;DHT22;32412;51.478;5.694;2023-05-14T13:19:41;24.10;90.80
46676;DHT22;32412;51.478;5.694;2023-05-14T13:22:06;24.00;90.50
46676;DHT22;32412;51.478;5.694;2023-05-14T13:24:33;24.10;91.20
46676;DHT22;32412;51.478;5.694;2023-05-14T13:26:58;24.00;90.00
46676;DHT22;32412;51.478;5.694;2023-05-14T13:29:24;23.80;90.80
46676;DHT22;32412;51.478;5.694;2023-05-14T13:31:50;24.10;92.00
46676;DHT22;32412;51.478;5.694;2023-05-14T13:34:15;24.30;92.00
46676;DHT22;32412;51.478;5.694;2023-05-14T13:36:41;24.20;89.10
46676;DHT22;32412;51.478;5.694;2023-05-14T13:39:09;24.40;90.70
46676;DHT22;32412;51.478;5.694;2023-05-14T13:41:35;24.40;89.90
46676;DHT22;32412;51.478;5.694;2023-05-14T13:44:02;24.20;90.10
46676;DHT22;32412;51.478;5.694;2023-05-14T13:46:28;23.70;90.40
46676;DHT22;32412;51.478;5.694;2023-05-14T13:48:54;23.20;90.70
46676;DHT22;32412;51.478;5.694;2023-05-14T13:51:21;22.90;91.80
46676;DHT22;32412;51.478;5.694;2023-05-14T13:53:47;22.90;91.40
46676;DHT22;32412;51.478;5.694;2023-05-14T13:56:12;22.80;91.20
46676;DHT22;32412;51.478;5.694;2023-05-14T13:58:38;22.90;91.80
46676;DHT22;32412;51.478;5.694;2023-05-14T14:01:04;23.00;91.70
46676;DHT22;32412;51.478;5.694;2023-05-14T14:03:30;23.30;91.20
46676;DHT22;32412;51.478;5.694;2023-05-14T14:05:55;23.30;92.80
46676;DHT22;32412;51.478;5.694;2023-05-14T14:08:21;23.20;93.30
46676;DHT22;32412;51.478;5.694;2023-05-14T14:10:46;23.10;93.20
46676;DHT22;32412;51.478;5.694;2023-05-14T14:13:12;23.20;93.30
46676;DHT22;32412;51.478;5.694;2023-05-14T14:15:38;23.10;92.10
46676;DHT22;32412;51.478;5.694;2023-05-14T14:18:04;23.10;91.90
46676;DHT22;32412;51.478;5.694;2023-05-14T14:20:30;23.20;91.60
46676;DHT22;32412;51.478;5.694;2023-05-14T14:22:56;23.30;91.00
46676;DHT22;32412;51.478;5.694;2023-05-14T14:25:21;23.40;91.30
46676;DHT22;32412;51.478;5.694;2023-05-14T14:27:47;23.40;91.00
46676;DHT22;32412;51.478;5.694;2023-05-14T14:30:13;23.20;91.60
46676;DHT22;32412;51.478;5.694;2023-05-14T14:32:46;23.10;91.00
46676;DHT22;32412;51.478;5.694;2023-05-14T14:35:13;23.30;91.70
46676;DHT22;32412;51.478;5.694;2023-05-14T14:37:40;23.10;90.90
46676;DHT22;32412;51.478;5.694;2023-05-14T14:40:07;23.10;91.70
46676;DHT22;32412;51.478;5.694;2023-05-14T14:42:37;23.20;90.90
46676;DHT22;32412;51.478;5.694;2023-05-14T14:45:04;23.30;92.00
46676;DHT22;32412;51.478;5.694;2023-05-14T14:47:30;23.20;91.30
46676;DHT22;32412;51.478;5.694;2023-05-14T14:49:56;23.30;91.30
46676;DHT22;32412;51.478;5.694;2023-05-14T14:52:23;23.20;92.30
46676;DHT22;32412;51.478;5.694;2023-05-14T14:54:49;23.10;91.80
46676;DHT22;32412;51.478;5.694;2023-05-14T14:57:15;23.20;91.80
46676;DHT22;32412;51.478;5.694;2023-05-14T14:59:41;23.20;92.00
46676;DHT22;32412;51.478;5.694;2023-05-14T15:02:08;23.00;92.70
46676;DHT22;32412;51.478;5.694;2023-05-14T15:04:34;22.90;92.80
46676;DHT22;32412;51.478;5.694;2023-05-14T15:07:03;22.90;93.50
46676;DHT22;32412;51.478;5.694;2023-05-14T15:09:29;22.70;92.90
46676;DHT22;32412;51.478;5.694;2023-05-14T15:11:56;22.50;93.60
46676;DHT22;32412;51.478;5.694;2023-05-14T15:14:22;22.60;93.10
46676;DHT22;32412;51.478;5.694;2023-05-14T15:16:47;22.50;93.70
46676;DHT22;32412;51.478;5.694;2023-05-14T15:19:13;22.50;94.30
46676;DHT22;32412;51.478;5.694;2023-05-14T15:21:40;22.60;94.00
46676;DHT22;32412;51.478;5.694;2023-05-14T15:24:06;22.40;93.60
46676;DHT22;32412;51.478;5.694;2023-05-14T15:26:35;22.30;93.90
46676;DHT22;32412;51.478;5.694;2023-05-14T15:29:01;22.00;93.90
46676;DHT22;32412;51.478;5.694;2023-05-14T15:31:29;21.80;94.50
46676;DHT22;32412;51.478;5.694;2023-05-14T15:33:54;21.70;95.00
46676;DHT22;32412;51.478;5.694;2023-05-14T15:36:23;21.60;94.70
46676;DHT22;32412;51.478;5.694;2023-05-14T15:38:49;21.70;95.30
46676;DHT22;32412;51.478;5.694;2023-05-14T15:41:15;21.80;95.10